Time;durP1;ratioP1;P1;durP2;ratioP2;P2;SDS_P1;SDS_P2;PMS_P1;PMS_P2;Temp;Humidity;BMP_temperature;BMP_pressure;BME280_temperature;BME280_humidity;BME280_pressure;Samples;Min_cycle;Max_cycle;Signal;HPM_P1;HPM_P2
2023/08/18 00:00:20;;;;;;;9.15;6.88;;;;;;;17.29;100.00;101822.06;4988873;28;20038;-89
2023/08/18 00:02:45;;;;;;;8.98;5.90;;;;;;;17.37;100.00;101825.69;4977276;28;20038;-88
2023/08/18 00:05:11;;;;;;;10.27;7.00;;;;;;;17.24;100.00;101823.28;4981194;28;20117;-87
2023/08/18 00:07:36;;;;;;;9.82;7.20;;;;;;;17.20;100.00;101822.44;4983831;28;20487;-89
2023/08/18 00:10:03;;;;;;;13.65;9.20;;;;;;;17.17;100.00;101814.75;4979372;28;20023;-89
2023/08/18 00:12:29;;;;;;;10.52;8.07;;;;;;;17.18;100.00;101818.38;4978059;28;20030;-88
2023/08/18 00:14:55;;;;;;;13.82;8.90;;;;;;;17.15;100.00;101811.50;4972520;28;20254;-88
2023/08/18 00:17:20;;;;;;;13.40;7.70;;;;;;;17.19;100.00;101803.84;4996132;28;20031;-89
2023/08/18 00:19:46;;;;;;;12.52;8.43;;;;;;;17.06;100.00;101796.97;4972521;28;20545;-88
2023/08/18 00:22:12;;;;;;;14.40;9.80;;;;;;;17.27;100.00;101816.78;4974589;28;20038;-88
2023/08/18 00:24:37;;;;;;;13.15;8.68;;;;;;;17.16;100.00;101787.69;4978180;28;20575;-88
2023/08/18 00:27:03;;;;;;;13.95;7.75;;;;;;;17.33;100.00;101790.91;4976795;28;21514;-88
2023/08/18 00:29:28;;;;;;;14.85;10.35;;;;;;;17.34;100.00;101796.19;4981479;28;20030;-89
2023/08/18 00:31:53;;;;;;;18.55;10.35;;;;;;;17.21;100.00;101795.75;4976126;28;20045;-88
2023/08/18 00:34:19;;;;;;;12.23;7.65;;;;;;;17.37;100.00;101792.56;4980543;28;20454;-89
2023/08/18 00:36:44;;;;;;;11.77;7.70;;;;;;;17.45;100.00;101779.22;4980230;28;20038;-89
2023/08/18 00:39:10;;;;;;;15.27;8.95;;;;;;;17.55;100.00;101803.09;4977439;28;20124;-89
2023/08/18 00:41:35;;;;;;;15.55;8.75;;;;;;;17.36;100.00;101812.78;4973466;28;20058;-88
2023/08/18 00:44:02;;;;;;;16.52;9.45;;;;;;;17.18;100.00;101787.25;4973630;28;20471;-90
2023/08/18 00:46:27;;;;;;;14.48;8.70;;;;;;;17.19;100.00;101791.72;4977545;28;20446;-88
2023/08/18 00:48:53;;;;;;;15.10;8.10;;;;;;;17.22;100.00;101797.41;4970455;28;20482;-88
2023/08/18 00:51:20;;;;;;;10.80;7.22;;;;;;;17.31;100.00;101808.31;4972751;28;20045;-88
2023/08/18 00:53:45;;;;;;;18.80;9.15;;;;;;;17.25;100.00;101809.94;4975631;28;20126;-88
2023/08/18 00:56:13;;;;;;;13.27;8.10;;;;;;;17.33;100.00;101802.25;4974830;28;20540;-89
2023/08/18 00:58:39;;;;;;;11.23;6.53;;;;;;;17.38;100.00;101804.69;4968337;28;20230;-88
2023/08/18 01:01:04;;;;;;;11.25;7.20;;;;;;;17.38;100.00;101794.16;4969313;28;20033;-88
2023/08/18 01:03:30;;;;;;;14.38;8.23;;;;;;;17.09;100.00;101784.81;4969070;28;20042;-88
2023/08/18 01:05:56;;;;;;;11.60;7.25;;;;;;;17.25;100.00;101807.09;4991029;28;20428;-88
2023/08/18 01:08:21;;;;;;;10.88;7.15;;;;;;;17.36;100.00;101802.25;4980103;28;20030;-88
2023/08/18 01:11:02;;;;;;;11.20;7.57;;;;;;;17.31;100.00;101805.50;4975298;28;20074;-88
2023/08/18 01:14:14;;;;;;;14.45;6.65;;;;;;;17.22;100.00;101805.88;4973558;28;20117;-88
2023/08/18 01:16:44;;;;;;;10.18;6.35;;;;;;;17.40;100.00;101797.41;4974935;28;20446;-89
2023/08/18 01:19:14;;;;;;;9.00;6.18;;;;;;;17.14;100.00;101792.94;4977466;28;20517;-87
2023/08/18 01:21:41;;;;;;;14.05;6.75;;;;;;;17.15;100.00;101791.72;4976308;28;20253;-89
2023/08/18 01:24:06;;;;;;;11.50;5.65;;;;;;;17.18;100.00;101790.91;4980739;28;20453;-89
2023/08/18 01:26:32;;;;;;;9.38;5.97;;;;;;;17.15;100.00;101786.06;4981863;28;20041;-90
2023/08/18 01:28:57;;;;;;;12.50;6.72;;;;;;;17.04;100.00;101797.34;4983569;28;20454;-88
2023/08/18 01:31:30;;;;;;;10.95;5.70;;;;;;;17.07;100.00;101787.25;4991545;28;20038;-89
2023/08/18 01:34:02;;;;;;;9.00;5.97;;;;;;;16.96;100.00;101766.63;4975696;28;20041;-88
2023/08/18 01:36:41;;;;;;;9.35;5.47;;;;;;;17.02;100.00;101765.03;4973777;28;20034;-88
2023/08/18 01:39:09;;;;;;;11.88;5.63;;;;;;;17.09;100.00;101775.53;4977210;28;20037;-89
2023/08/18 01:41:35;;;;;;;11.75;5.18;;;;;;;17.01;100.00;101771.88;4978935;28;20076;-89
2023/08/18 01:44:00;;;;;;;14.10;6.57;;;;;;;16.83;100.00;101774.69;4973344;28;20037;-89
2023/08/18 01:46:26;;;;;;;14.43;6.53;;;;;;;16.92;100.00;101760.94;4975548;28;20030;-88
2023/08/18 01:48:51;;;;;;;14.00;7.22;;;;;;;17.13;100.00;101760.19;4976739;28;20057;-88
2023/08/18 01:51:17;;;;;;;8.45;5.80;;;;;;;17.04;100.00;101748.47;4976684;28;20030;-88
2023/08/18 01:53:42;;;;;;;13.73;7.68;;;;;;;16.92;100.00;101748.84;4970365;28;20353;-88
2023/08/18 01:56:07;;;;;;;10.88;6.80;;;;;;;17.01;100.00;101740.78;4979906;28;20044;-88
2023/08/18 01:58:33;;;;;;;11.77;6.40;;;;;;;16.97;100.00;101739.94;4975155;28;20715;-88
2023/08/18 02:00:58;;;;;;;14.70;7.00;;;;;;;16.94;100.00;101740.78;4972882;28;20034;-88
2023/08/18 02:03:26;;;;;;;9.77;6.90;;;;;;;16.97;100.00;101745.59;4978989;28;20395;-89
2023/08/18 02:05:52;;;;;;;11.07;6.78;;;;;;;16.72;100.00;101732.22;4976551;28;20026;-88
2023/08/18 02:08:18;;;;;;;10.48;6.70;;;;;;;16.78;100.00;101727.78;4975160;28;20027;-89
2023/08/18 02:10:44;;;;;;;10.65;5.65;;;;;;;17.00;100.00;101733.50;4979466;28;20030;-88
2023/08/18 02:13:09;;;;;;;12.30;6.97;;;;;;;17.00;100.00;101744.81;4993060;28;20052;-88
2023/08/18 02:15:35;;;;;;;12.82;5.82;;;;;;;17.17;100.00;101741.19;4975627;28;20030;-88
2023/08/18 02:18:00;;;;;;;11.75;6.95;;;;;;;17.02;100.00;101742.41;4981133;28;20025;-88
2023/08/18 02:20:26;;;;;;;15.05;5.32;;;;;;;16.96;100.00;101732.69;4982921;28;20026;-89
2023/08/18 02:22:51;;;;;;;11.10;5.93;;;;;;;17.03;100.00;101741.19;4980848;28;20399;-89
2023/08/18 02:25:17;;;;;;;12.02;7.18;;;;;;;17.05;100.00;101741.59;4977409;28;20069;-89
2023/08/18 02:27:42;;;;;;;10.00;6.15;;;;;;;17.13;100.00;101733.94;4982787;28;20023;-88
2023/08/18 02:30:08;;;;;;;10.32;6.53;;;;;;;17.18;100.00;101734.34;4972378;28;20027;-88
2023/08/18 02:32:33;;;;;;;7.30;5.18;;;;;;;17.11;100.00;101728.66;4973236;28;20030;-88
2023/08/18 02:34:59;;;;;;;9.77;5.88;;;;;;;17.18;100.00;101706.06;4980102;28;20069;-88
2023/08/18 02:37:24;;;;;;;9.63;5.95;;;;;;;17.27;100.00;101728.28;4977702;28;20314;-88
2023/08/18 02:39:50;;;;;;;10.98;5.80;;;;;;;17.06;100.00;101720.59;4978222;28;20031;-88
2023/08/18 02:42:15;;;;;;;9.73;5.85;;;;;;;17.12;100.00;101718.97;4986382;28;20072;-89
2023/08/18 02:44:40;;;;;;;11.10;6.32;;;;;;;17.11;100.00;101716.53;4978643;28;20030;-89
2023/08/18 02:47:06;;;;;;;11.32;5.55;;;;;;;17.10;100.00;101715.75;4973898;28;20308;-89
2023/08/18 02:49:31;;;;;;;10.75;5.00;;;;;;;17.03;100.00;101701.56;4976952;28;20030;-89
2023/08/18 02:51:57;;;;;;;8.98;5.70;;;;;;;17.18;100.00;101714.53;4990954;28;20572;-88
2023/08/18 02:54:22;;;;;;;7.70;5.28;;;;;;;17.22;100.00;101718.19;4973888;28;20034;-89
2023/08/18 02:56:47;;;;;;;21.17;7.63;;;;;;;17.18;100.00;101711.72;4975896;28;21346;-88
2023/08/18 02:59:13;;;;;;;10.38;4.95;;;;;;;17.14;100.00;101705.25;4973812;28;20046;-89
2023/08/18 03:01:38;;;;;;;7.95;5.53;;;;;;;17.11;100.00;101696.75;4975111;28;20117;-89
2023/08/18 03:04:04;;;;;;;10.55;5.40;;;;;;;17.11;100.00;101700.38;4990987;28;20034;-88
2023/08/18 03:06:29;;;;;;;8.15;4.85;;;;;;;17.31;100.00;101719.78;4980080;28;20033;-89
2023/08/18 03:08:54;;;;;;;11.80;5.07;;;;;;;17.30;100.00;101715.34;4976967;28;20030;-89
2023/08/18 03:11:20;;;;;;;11.60;5.65;;;;;;;17.20;100.00;101702.81;4980859;28;20061;-89
2023/08/18 03:13:45;;;;;;;9.40;5.03;;;;;;;17.33;100.00;101711.69;4997231;28;20055;-89
2023/08/18 03:16:11;;;;;;;7.75;4.65;;;;;;;17.17;100.00;101704.41;4977720;28;20034;-89
2023/08/18 03:18:36;;;;;;;8.85;4.80;;;;;;;17.27;100.00;101702.81;4978395;28;20406;-89
2023/08/18 03:21:03;;;;;;;7.30;4.55;;;;;;;17.39;100.00;101715.72;4983473;28;20027;-89
2023/08/18 03:23:29;;;;;;;10.43;5.57;;;;;;;17.24;100.00;101709.25;4980432;28;20453;-89
2023/08/18 03:26:00;;;;;;;16.45;6.35;;;;;;;17.20;100.00;101720.59;4983254;28;20176;-89
2023/08/18 03:28:26;;;;;;;10.20;5.25;;;;;;;17.32;100.00;101712.91;4979068;28;20030;-89
2023/08/18 03:30:51;;;;;;;7.32;4.38;;;;;;;17.28;100.00;101710.88;4979818;28;20038;-89
2023/08/18 03:33:17;;;;;;;7.45;4.53;;;;;;;17.33;100.00;101723.00;4978586;28;20515;-88
2023/08/18 03:35:48;;;;;;;11.50;5.30;;;;;;;17.40;100.00;101725.84;4984403;28;20037;-89
2023/08/18 03:38:13;;;;;;;12.82;5.13;;;;;;;17.24;100.00;101732.72;5001007;28;20034;-89
2023/08/18 03:40:39;;;;;;;8.32;5.30;;;;;;;17.32;100.00;101715.75;4984650;28;20034;-88
2023/08/18 03:43:07;;;;;;;6.55;4.63;;;;;;;17.22;100.00;101726.66;4984873;28;20122;-88
2023/08/18 03:45:33;;;;;;;6.72;4.57;;;;;;;17.30;100.00;101724.63;4980698;28;20022;-88
2023/08/18 03:47:59;;;;;;;10.10;5.30;;;;;;;17.12;100.00;101702.00;4980816;28;20034;-89
2023/08/18 03:50:24;;;;;;;11.77;4.65;;;;;;;17.15;100.00;101706.84;4982786;28;20109;-89
2023/08/18 03:52:49;;;;;;;8.98;4.80;;;;;;;17.36;100.00;101710.91;4985527;28;20116;-89
2023/08/18 03:55:15;;;;;;;10.55;4.78;;;;;;;17.31;100.00;101719.78;4981246;28;20035;-89
2023/08/18 03:57:40;;;;;;;9.98;4.85;;;;;;;17.25;100.00;101717.34;4994648;28;20049;-89
2023/08/18 04:00:09;;;;;;;13.52;5.57;;;;;;;17.30;100.00;101716.16;4982581;28;20026;-88
2023/08/18 04:02:35;;;;;;;9.52;6.68;;;;;;;17.22;100.00;101706.88;5000063;28;20609;-89
2023/08/18 04:05:00;;;;;;;8.80;5.18;;;;;;;17.14;100.00;101710.91;4983208;28;20669;-88
2023/08/18 04:07:25;;;;;;;11.05;6.10;;;;;;;17.18;100.00;101717.38;4982129;28;20129;-89
2023/08/18 04:09:51;;;;;;;8.13;4.50;;;;;;;17.31;100.00;101719.78;4990717;28;20049;-89
2023/08/18 04:12:16;;;;;;;7.68;5.25;;;;;;;17.30;100.00;101718.16;4977164;28;20034;-88
2023/08/18 04:14:42;;;;;;;8.00;4.72;;;;;;;17.32;100.00;101712.91;4960759;28;20166;-88
2023/08/18 04:17:07;;;;;;;9.05;6.47;;;;;;;17.30;100.00;101716.16;4975911;28;20053;-88
2023/08/18 04:19:32;;;;;;;8.30;5.28;;;;;;;16.96;100.00;101687.44;4985349;28;20386;-88
2023/08/18 04:21:58;;;;;;;11.57;5.15;;;;;;;17.13;100.00;101697.94;4985670;28;20042;-89
2023/08/18 04:24:23;;;;;;;10.40;5.45;;;;;;;17.14;100.00;101710.91;4981968;28;20080;-89
2023/08/18 04:26:48;;;;;;;12.02;5.93;;;;;;;17.12;100.00;101710.50;4984024;28;20034;-88
2023/08/18 04:29:14;;;;;;;12.68;6.28;;;;;;;17.12;100.00;101702.00;4975642;28;20084;-89
2023/08/18 04:31:39;;;;;;;13.40;5.35;;;;;;;16.96;100.00;101687.44;4979100;28;20100;-88
2023/08/18 04:34:05;;;;;;;12.18;5.40;;;;;;;16.98;100.00;101697.13;4982591;28;20026;-88
2023/08/18 04:36:30;;;;;;;11.60;6.93;;;;;;;17.01;100.00;101689.84;4983912;28;20118;-88
2023/08/18 04:38:56;;;;;;;10.38;5.72;;;;;;;17.03;100.00;101687.44;4976580;28;20361;-89
2023/08/18 04:41:21;;;;;;;12.45;5.55;;;;;;;17.06;100.00;101692.31;4983111;28;20034;-88
2023/08/18 04:43:49;;;;;;;10.73;5.93;;;;;;;16.98;100.00;101699.16;4982979;28;20596;-88
2023/08/18 04:46:15;;;;;;;13.70;5.68;;;;;;;16.90;100.00;101694.69;4977320;28;20454;-88
2023/08/18 04:48:43;;;;;;;14.60;5.50;;;;;;;17.03;100.00;101705.25;4975272;28;20112;-88
2023/08/18 04:51:10;;;;;;;11.82;6.18;;;;;;;17.16;100.00;101714.13;4974743;28;20041;-88
2023/08/18 04:53:36;;;;;;;10.73;5.78;;;;;;;17.01;100.00;101710.50;4978568;28;20042;-88
2023/08/18 04:56:03;;;;;;;10.45;5.68;;;;;;;16.78;100.00;101693.03;4981234;28;20030;-88
2023/08/18 04:58:28;;;;;;;13.30;5.70;;;;;;;16.81;100.00;101693.06;4976103;28;20391;-88
2023/08/18 05:00:54;;;;;;;12.65;5.50;;;;;;;17.01;100.00;101702.00;4986664;28;20057;-88
2023/08/18 05:03:19;;;;;;;14.35;5.88;;;;;;;16.86;100.00;101701.19;4974104;28;20257;-89
2023/08/18 05:06:08;;;;;;;12.25;5.30;;;;;;;16.93;100.00;101693.88;4978060;28;20073;-89
2023/08/18 05:08:35;;;;;;;10.63;5.70;;;;;;;16.90;100.00;101692.69;4973566;28;20041;-88
2023/08/18 05:11:05;;;;;;;7.72;4.43;;;;;;;17.13;100.00;101708.47;4972777;28;20364;-89
2023/08/18 05:13:35;;;;;;;13.23;5.22;;;;;;;16.98;100.00;101687.84;4976636;28;20084;-89
2023/08/18 05:16:01;;;;;;;12.18;6.20;;;;;;;17.15;100.00;101701.19;4985010;28;20038;-89
2023/08/18 05:18:30;;;;;;;11.75;5.90;;;;;;;16.97;100.00;101701.19;4977856;28;20042;-89
2023/08/18 05:20:56;;;;;;;14.30;6.40;;;;;;;17.12;100.00;101707.66;4974601;28;20031;-89
2023/08/18 05:23:22;;;;;;;13.15;6.38;;;;;;;17.06;100.00;101692.31;4977052;28;20744;-90
2023/08/18 05:25:48;;;;;;;11.80;6.18;;;;;;;16.99;100.00;101695.09;4973367;28;20030;-88
2023/08/18 05:28:14;;;;;;;11.93;5.00;;;;;;;16.99;100.00;101704.41;4966591;28;20060;-89
2023/08/18 05:30:47;;;;;;;11.15;5.40;;;;;;;17.15;100.00;101695.53;4971427;28;20125;-89
2023/08/18 05:33:13;;;;;;;9.68;6.25;;;;;;;17.09;100.00;101690.69;4966888;28;20409;-88
2023/08/18 05:35:38;;;;;;;10.27;5.80;;;;;;;17.14;100.00;101693.94;4969937;28;20125;-88
2023/08/18 05:38:10;;;;;;;10.60;5.68;;;;;;;17.21;100.00;101696.75;4970522;28;20175;-88
2023/08/18 05:40:45;;;;;;;13.03;6.70;;;;;;;16.89;100.00;101673.28;4980140;28;20027;-89
2023/08/18 05:43:15;;;;;;;14.07;6.60;;;;;;;16.67;100.00;101659.91;4969907;28;20803;-88
2023/08/18 05:45:42;;;;;;;10.40;5.53;;;;;;;16.68;100.00;101660.72;4963779;28;21276;-88
2023/08/18 05:48:08;;;;;;;10.00;6.65;;;;;;;16.76;100.00;101648.22;4975223;28;20030;-88
2023/08/18 05:50:34;;;;;;;12.00;5.97;;;;;;;17.07;100.00;101682.59;4977184;28;20042;-88
2023/08/18 05:53:02;;;;;;;13.07;6.35;;;;;;;16.94;100.00;101670.88;4972420;28;20043;-88
2023/08/18 05:55:30;;;;;;;11.23;6.75;;;;;;;16.97;100.00;101689.88;4969936;28;20112;-88
2023/08/18 05:57:59;;;;;;;8.23;5.88;;;;;;;16.99;100.00;101689.44;4986690;28;20045;-88
2023/08/18 06:00:25;;;;;;;10.00;5.22;;;;;;;16.96;100.00;101665.63;4968216;28;20053;-88
2023/08/18 06:02:50;;;;;;;11.57;6.70;;;;;;;17.12;100.00;101679.38;4964709;28;20235;-87
2023/08/18 06:05:16;;;;;;;14.23;6.75;;;;;;;17.05;100.00;101670.88;4968461;28;20028;-88
2023/08/18 06:07:41;;;;;;;9.70;5.40;;;;;;;16.97;100.00;101660.75;4972447;28;20030;-89
2023/08/18 06:10:09;;;;;;;8.98;5.60;;;;;;;17.20;100.00;101686.66;4975693;28;20026;-89
2023/08/18 06:12:35;;;;;;;8.48;4.88;;;;;;;17.21;100.00;101682.59;4969420;28;20078;-88
2023/08/18 06:15:01;;;;;;;13.68;6.32;;;;;;;17.23;100.00;101668.84;4974612;28;20491;-88
2023/08/18 06:17:26;;;;;;;12.57;6.55;;;;;;;17.43;100.00;101682.56;4973424;28;20030;-88
2023/08/18 06:19:52;;;;;;;13.65;6.28;;;;;;;17.20;100.00;101668.84;4982469;28;20037;-88
2023/08/18 06:22:17;;;;;;;12.02;6.50;;;;;;;17.17;100.00;101678.97;4979017;28;20226;-88
2023/08/18 06:24:46;;;;;;;15.07;7.15;;;;;;;16.95;100.00;101658.38;4967804;28;20888;-88
2023/08/18 06:27:11;;;;;;;13.05;6.68;;;;;;;17.17;100.00;101669.66;4974289;28;20371;-88
2023/08/18 06:29:38;;;;;;;17.55;7.35;;;;;;;17.09;100.00;101668.84;4971869;28;20030;-88
2023/08/18 06:32:04;;;;;;;14.73;6.95;;;;;;;17.06;100.00;101653.50;4974118;28;20057;-89
2023/08/18 06:34:29;;;;;;;12.10;6.45;;;;;;;17.18;100.00;101683.41;4978353;28;20031;-89
2023/08/18 06:36:54;;;;;;;11.35;6.63;;;;;;;16.96;100.00;101656.34;4975037;28;20068;-89
2023/08/18 06:39:20;;;;;;;13.27;6.97;;;;;;;17.17;100.00;101675.34;4972835;28;20034;-88
2023/08/18 06:41:45;;;;;;;17.52;7.85;;;;;;;17.22;100.00;101687.06;4975653;28;20399;-88
2023/08/18 06:44:12;;;;;;;12.27;8.20;;;;;;;17.18;100.00;101680.59;4978298;28;20188;-88
2023/08/18 06:46:37;;;;;;;12.60;6.55;;;;;;;17.24;100.00;101683.81;4974586;28;20034;-87
2023/08/18 06:49:03;;;;;;;12.75;7.70;;;;;;;17.27;100.00;101680.97;4982195;28;20030;-88
2023/08/18 06:51:28;;;;;;;17.52;7.95;;;;;;;17.16;100.00;101673.69;4978831;28;20128;-88
2023/08/18 06:53:54;;;;;;;15.52;9.32;;;;;;;17.12;100.00;101678.53;4982270;28;20057;-88
2023/08/18 06:56:19;;;;;;;16.75;8.32;;;;;;;17.27;100.00;101683.00;4985465;28;20088;-88
2023/08/18 06:58:45;;;;;;;17.55;8.77;;;;;;;17.36;100.00;101676.94;4982531;28;20029;-87
2023/08/18 07:01:10;;;;;;;15.60;7.78;;;;;;;17.37;100.00;101678.53;4985704;28;20027;-87
2023/08/18 07:03:36;;;;;;;16.45;8.45;;;;;;;17.48;100.00;101662.38;4976571;28;20033;-88
2023/08/18 07:06:01;;;;;;;16.42;8.38;;;;;;;17.56;100.00;101668.81;4979323;28;20117;-87
2023/08/18 07:08:27;;;;;;;20.10;10.15;;;;;;;17.53;100.00;101661.94;4997878;28;20022;-88
2023/08/18 07:10:52;;;;;;;13.55;7.55;;;;;;;17.41;100.00;101651.88;4983578;28;20394;-87
2023/08/18 07:13:20;;;;;;;20.73;8.75;;;;;;;17.51;100.00;101658.72;4980891;28;20034;-87
2023/08/18 07:15:45;;;;;;;17.17;8.13;;;;;;;17.58;100.00;101658.72;4984388;28;20027;-88
2023/08/18 07:18:11;;;;;;;13.73;7.18;;;;;;;17.63;100.00;101669.63;4979456;28;20026;-88
2023/08/18 07:20:36;;;;;;;14.88;8.32;;;;;;;17.69;100.00;101672.84;4981868;28;20033;-88
2023/08/18 07:23:03;;;;;;;17.45;8.45;;;;;;;17.63;100.00;101669.63;4978748;28;20034;-87
2023/08/18 07:25:30;;;;;;;17.23;8.10;;;;;;;17.74;100.00;101660.28;4971899;28;20408;-87
2023/08/18 07:27:55;;;;;;;15.68;8.70;;;;;;;17.77;100.00;101660.28;4978799;28;20539;-87
2023/08/18 07:30:21;;;;;;;14.60;8.63;;;;;;;17.68;100.00;101652.19;4976804;28;20096;-88
2023/08/18 07:32:47;;;;;;;19.15;8.63;;;;;;;17.80;100.00;101656.63;4978007;28;20067;-88
2023/08/18 07:35:12;;;;;;;14.95;8.88;;;;;;;17.66;100.00;101640.47;4977523;28;20161;-87
2023/08/18 07:37:39;;;;;;;15.05;8.80;;;;;;;17.95;100.00;101662.28;4979300;28;20074;-88
2023/08/18 07:40:07;;;;;;;18.88;9.48;;;;;;;17.98;100.00;101655.78;4980894;28;20092;-88
2023/08/18 07:42:33;;;;;;;19.25;10.02;;;;;;;17.92;100.00;101646.91;4976911;28;20117;-87
2023/08/18 07:44:58;;;;;;;13.15;8.40;;;;;;;17.99;100.00;101646.88;4985894;28;20041;-88
2023/08/18 07:47:23;;;;;;;18.38;9.63;;;;;;;17.95;100.00;101646.09;4980701;28;20022;-88
2023/08/18 07:49:49;;;;;;;16.92;9.25;;;;;;;17.93;100.00;101627.91;4977815;28;20022;-88
2023/08/18 07:52:14;;;;;;;16.83;10.10;;;;;;;18.00;100.00;101637.16;4977793;28;20031;-87
2023/08/18 07:54:40;;;;;;;19.77;9.63;;;;;;;18.08;100.00;101650.06;4978532;28;20038;-86
2023/08/18 07:57:08;;;;;;;16.35;8.40;;;;;;;18.12;100.00;101641.56;4982876;28;20030;-86
2023/08/18 07:59:37;;;;;;;16.52;10.98;;;;;;;18.27;100.00;101662.13;4992410;28;20027;-86
2023/08/18 08:02:02;;;;;;;16.15;9.70;;;;;;;18.32;100.00;101664.56;4978748;28;20431;-87
2023/08/18 08:04:28;;;;;;;19.15;9.48;;;;;;;18.33;100.00;101660.47;4980675;28;20026;-86
2023/08/18 08:06:56;;;;;;;22.67;12.48;;;;;;;18.30;100.00;101667.00;4974880;28;20031;-87
2023/08/18 08:09:23;;;;;;;23.60;12.45;;;;;;;18.23;100.00;101667.81;4979035;28;20089;-87
2023/08/18 08:11:49;;;;;;;19.20;10.55;;;;;;;18.30;100.00;101664.16;4980556;28;20822;-87
2023/08/18 08:14:15;;;;;;;20.15;10.63;;;;;;;18.29;100.00;101666.16;4996528;28;20150;-87
2023/08/18 08:16:41;;;;;;;23.00;10.95;;;;;;;18.52;100.00;101666.88;4978462;28;20041;-88
2023/08/18 08:19:06;;;;;;;22.13;12.20;;;;;;;18.47;100.00;101654.75;4978003;28;20414;-88
2023/08/18 08:21:32;;;;;;;25.65;12.15;;;;;;;18.62;100.00;101675.31;4977361;28;20023;-87
2023/08/18 08:23:57;;;;;;;13.77;6.88;;;;;;;19.29;100.00;101661.84;4977185;28;21803;-85
2023/08/18 08:26:23;;;;;;;8.30;5.28;;;;;;;19.11;100.00;101674.59;4977442;28;20391;-85
2023/08/18 08:28:48;;;;;;;10.07;6.10;;;;;;;19.45;100.00;101669.00;4984020;28;20036;-85
2023/08/18 08:31:14;;;;;;;12.77;6.55;;;;;;;19.88;100.00;101669.41;4978652;28;20173;-85
2023/08/18 08:33:39;;;;;;;15.20;7.75;;;;;;;;;;4982722;28;20054;-85
2023/08/18 08:36:05;;;;;;;11.77;6.25;;;;;;;19.67;100.00;101672.44;4996086;28;20507;-85
2023/08/18 08:38:30;;;;;;;12.70;5.68;;;;;;;20.28;100.00;101681.09;4980710;28;20034;-85
2023/08/18 08:40:58;;;;;;;9.20;6.57;;;;;;;20.36;100.00;101678.94;4998110;28;20026;-85
2023/08/18 08:43:24;;;;;;;15.38;8.15;;;;;;;20.19;100.00;101674.28;4973054;28;20118;-84
2023/08/18 08:45:51;;;;;;;12.90;8.13;;;;;;;19.78;100.00;101675.19;4972330;28;20089;-85
2023/08/18 08:48:19;;;;;;;14.10;8.55;;;;;;;19.84;100.00;101676.34;4968683;28;20408;-85
2023/08/18 08:50:48;;;;;;;8.10;6.18;;;;;;;19.91;100.00;101673.41;4974621;28;20033;-85
2023/08/18 08:53:19;;;;;;;14.75;9.02;;;;;;;;;;4984354;28;20537;-85
2023/08/18 08:55:46;;;;;;;16.10;9.30;;;;;;;19.45;100.00;101661.28;4977812;28;21042;-83
2023/08/18 08:58:13;;;;;;;13.50;7.05;;;;;;;19.99;100.00;101665.63;4993896;28;20038;-83
2023/08/18 09:00:38;;;;;;;13.57;6.82;;;;;;;20.09;100.00;101668.34;4976927;28;20723;-83
2023/08/18 09:03:06;;;;;;;10.05;5.90;;;;;;;20.28;100.00;101671.72;4973806;28;20056;-83
2023/08/18 09:05:32;;;;;;;13.27;8.55;;;;;;;20.00;100.00;101678.59;4972785;28;20041;-83
2023/08/18 09:07:58;;;;;;;15.85;8.88;;;;;;;20.40;100.00;101670.38;4976646;28;21520;-84
2023/08/18 09:10:25;;;;;;;18.08;8.27;;;;;;;20.24;100.00;101659.63;4978184;28;20038;-84
2023/08/18 09:12:51;;;;;;;13.32;7.63;;;;;;;20.36;100.00;101678.94;4977363;28;20036;-84
2023/08/18 09:15:16;;;;;;;16.30;8.85;;;;;;;20.39;100.00;101672.41;4974679;28;20057;-85
2023/08/18 09:17:45;;;;;;;15.70;7.40;;;;;;;20.18;100.00;101684.88;4977405;28;20073;-84
2023/08/18 09:20:14;;;;;;;15.38;7.05;;;;;;;20.15;100.00;101677.19;4975799;28;20034;-83
2023/08/18 09:22:39;;;;;;;11.57;7.10;;;;;;;20.43;100.00;101678.06;4978063;28;20090;-84
2023/08/18 09:25:07;;;;;;;15.43;9.43;;;;;;;20.20;100.00;101664.56;4977165;28;20770;-83
2023/08/18 09:27:33;;;;;;;13.65;8.43;;;;;;;20.10;100.00;101647.19;4976324;28;20569;-85
2023/08/18 09:29:58;;;;;;;14.32;6.60;;;;;;;20.64;100.00;101657.03;4973095;28;20040;-85
2023/08/18 09:32:24;;;;;;;13.48;8.50;;;;;;;20.49;100.00;101654.41;4982750;28;20030;-85
2023/08/18 09:34:51;;;;;;;17.33;7.97;;;;;;;20.48;100.00;101649.13;4977821;28;20029;-85
2023/08/18 09:37:16;;;;;;;17.38;9.18;;;;;;;20.43;100.00;101650.41;4972771;28;20026;-84
2023/08/18 09:39:42;;;;;;;14.25;7.90;;;;;;;20.36;100.00;101649.69;4971370;28;20157;-84
2023/08/18 09:42:08;;;;;;;14.23;8.98;;;;;;;20.34;100.00;101641.59;4973893;28;20132;-85
2023/08/18 09:44:34;;;;;;;24.88;10.18;;;;;;;20.46;100.00;101626.81;4977043;28;20054;-85
2023/08/18 09:47:03;;;;;;;13.90;7.90;;;;;;;20.60;100.00;101614.44;4975123;28;20443;-85
2023/08/18 09:49:33;;;;;;;19.02;10.15;;;;;;;20.54;100.00;101627.50;4968273;28;20041;-84
2023/08/18 09:52:04;;;;;;;17.70;9.82;;;;;;;20.73;100.00;101623.19;4973142;28;20042;-85
2023/08/18 09:54:31;;;;;;;17.10;8.77;;;;;;;21.14;100.00;101632.66;4974646;28;20491;-85
2023/08/18 09:57:02;;;;;;;17.95;9.82;;;;;;;21.32;100.00;101631.13;4974958;28;20337;-85
2023/08/18 09:59:35;;;;;;;16.33;8.35;;;;;;;21.54;100.00;101642.13;4980866;28;20030;-85
2023/08/18 10:02:03;;;;;;;19.50;9.68;;;;;;;21.55;100.00;101638.06;4978087;28;20387;-85
2023/08/18 10:04:37;;;;;;;12.18;6.97;;;;;;;21.63;100.00;101644.41;4982345;28;20474;-85
2023/08/18 10:07:04;;;;;;;14.65;7.68;;;;;;;21.84;100.00;101632.59;4982216;28;20463;-85
2023/08/18 10:09:33;;;;;;;12.70;6.75;;;;;;;21.82;100.00;101643.63;4974919;28;20035;-85
2023/08/18 10:12:00;;;;;;;14.98;9.20;;;;;;;21.70;100.00;101639.38;4974265;28;20458;-85
2023/08/18 10:14:26;;;;;;;20.55;11.80;;;;;;;21.89;100.00;101639.84;4973870;28;20082;-85
2023/08/18 10:16:53;;;;;;;19.90;11.35;;;;;;;21.78;100.00;101642.06;4975011;28;20058;-85
2023/08/18 10:19:48;;;;;;;18.45;10.55;;;;;;;21.87;100.00;101639.47;4975203;28;20487;-85
2023/08/18 10:22:21;;;;;;;19.75;10.88;;;;;;;21.80;100.00;101633.91;4975242;28;20096;-85
2023/08/18 10:24:48;;;;;;;18.35;10.30;;;;;;;21.84;100.00;101631.78;4979586;28;20035;-85
2023/08/18 10:27:29;;;;;;;18.60;10.55;;;;;;;21.65;100.00;101631.34;4971563;28;20436;-85
2023/08/18 10:30:01;;;;;;;20.20;10.13;;;;;;;21.62;100.00;101626.50;4981379;28;20142;-85
2023/08/18 10:32:27;;;;;;;19.77;10.52;;;;;;;21.67;100.00;101640.28;4976963;28;20030;-85
2023/08/18 10:34:52;;;;;;;23.15;10.82;;;;;;;21.42;100.00;101639.91;4976856;28;20062;-85
2023/08/18 10:37:22;;;;;;;15.25;9.38;;;;;;;21.64;100.00;101638.28;4978919;28;20110;-85
2023/08/18 10:39:50;;;;;;;17.02;9.73;;;;;;;21.67;100.00;101634.56;4967782;28;20043;-84
2023/08/18 10:42:16;;;;;;;18.02;9.35;;;;;;;21.63;100.00;101636.69;4977157;28;20022;-84
2023/08/18 10:45:05;;;;;;;22.17;11.98;;;;;;;21.63;100.00;101636.69;4975446;28;20037;-84
2023/08/18 10:47:34;;;;;;;19.40;11.00;;;;;;;21.75;100.00;101631.56;4979037;28;20113;-84
2023/08/18 10:50:01;;;;;;;20.17;9.27;;;;;;;22.18;100.00;101639.22;4975451;28;20469;-84
2023/08/18 10:52:30;;;;;;;17.48;10.70;;;;;;;21.83;100.00;101628.13;4978650;28;20042;-85
2023/08/18 10:54:56;;;;;;;21.83;12.88;;;;;;;21.55;100.00;101615.28;4975414;28;20026;-85
2023/08/18 10:57:23;;;;;;;19.35;11.25;;;;;;;21.74;100.00;101616.53;4990823;28;20041;-84
2023/08/18 10:59:48;;;;;;;18.73;10.65;;;;;;;22.33;100.00;101617.75;4969251;28;20035;-84
2023/08/18 11:02:13;;;;;;;21.83;11.20;;;;;;;22.43;100.00;101613.84;4971176;28;20104;-84
2023/08/18 11:04:39;;;;;;;18.38;11.05;;;;;;;22.48;100.00;101616.16;4975112;28;20041;-84
2023/08/18 11:07:04;;;;;;;16.50;10.80;;;;;;;22.24;100.00;101611.81;4969144;28;20457;-84
2023/08/18 11:09:31;;;;;;;13.45;8.85;;;;;;;22.20;100.00;101609.03;4966113;28;20042;-85